sensor_id;sensor_type;location;lat;lon;timestamp;temperature;humidity
11399;DHT22;5755;48.116;11.608;2023-07-02T00:00:54;17.30;99.90
11399;DHT22;5755;48.116;11.608;2023-07-02T00:03:21;17.30;99.90
11399;DHT22;5755;48.116;11.608;2023-07-02T00:05:48;17.30;99.90
11399;DHT22;5755;48.116;11.608;2023-07-02T00:08:16;17.40;99.90
11399;DHT22;5755;48.116;11.608;2023-07-02T00:10:43;17.40;99.90
11399;DHT22;5755;48.116;11.608;2023-07-02T00:13:11;17.30;99.90
11399;DHT22;5755;48.116;11.608;2023-07-02T00:29:23;17.30;99.90
11399;DHT22;5755;48.116;11.608;2023-07-02T00:31:49;17.30;99.90
11399;DHT22;5755;48.116;11.608;2023-07-02T00:34:17;17.40;99.60
11399;DHT22;5755;48.116;11.608;2023-07-02T00:36:44;17.40;99.90
11399;DHT22;5755;48.116;11.608;2023-07-02T00:39:12;17.40;99.40
11399;DHT22;5755;48.116;11.608;2023-07-02T00:41:39;17.50;99.10
11399;DHT22;5755;48.116;11.608;2023-07-02T00:44:08;17.50;99.50
11399;DHT22;5755;48.116;11.608;2023-07-02T00:46:37;17.50;98.80
11399;DHT22;5755;48.116;11.608;2023-07-02T00:49:28;17.60;98.50
11399;DHT22;5755;48.116;11.608;2023-07-02T00:51:55;17.60;98.90
11399;DHT22;5755;48.116;11.608;2023-07-02T00:54:22;17.50;98.90
11399;DHT22;5755;48.116;11.608;2023-07-02T00:56:49;17.50;99.10
11399;DHT22;5755;48.116;11.608;2023-07-02T00:59:17;17.50;99.00
11399;DHT22;5755;48.116;11.608;2023-07-02T01:01:45;17.50;99.00
11399;DHT22;5755;48.116;11.608;2023-07-02T01:04:17;17.40;99.30
11399;DHT22;5755;48.116;11.608;2023-07-02T01:06:46;17.30;99.90
11399;DHT22;5755;48.116;11.608;2023-07-02T01:09:13;17.30;99.90
11399;DHT22;5755;48.116;11.608;2023-07-02T01:11:41;17.30;99.90
11399;DHT22;5755;48.116;11.608;2023-07-02T01:14:12;17.30;99.90
11399;DHT22;5755;48.116;11.608;2023-07-02T01:16:41;17.30;99.90
11399;DHT22;5755;48.116;11.608;2023-07-02T01:21:57;17.30;99.90
11399;DHT22;5755;48.116;11.608;2023-07-02T01:24:39;17.30;99.90
11399;DHT22;5755;48.116;11.608;2023-07-02T01:27:15;17.30;99.90
11399;DHT22;5755;48.116;11.608;2023-07-02T01:29:43;17.30;99.90
11399;DHT22;5755;48.116;11.608;2023-07-02T01:32:24;17.20;99.90
11399;DHT22;5755;48.116;11.608;2023-07-02T01:34:51;17.20;99.90
11399;DHT22;5755;48.116;11.608;2023-07-02T01:37:39;17.20;99.90
11399;DHT22;5755;48.116;11.608;2023-07-02T01:40:07;17.20;99.90
11399;DHT22;5755;48.116;11.608;2023-07-02T01:42:34;17.20;99.90
11399;DHT22;5755;48.116;11.608;2023-07-02T01:45:05;17.20;99.90
11399;DHT22;5755;48.116;11.608;2023-07-02T01:47:32;17.20;99.90
11399;DHT22;5755;48.116;11.608;2023-07-02T02:00:03;17.10;99.90
11399;DHT22;5755;48.116;11.608;2023-07-02T02:06:13;17.10;99.90
11399;DHT22;5755;48.116;11.608;2023-07-02T02:15:25;17.00;99.90
11399;DHT22;5755;48.116;11.608;2023-07-02T02:36:22;16.70;99.90
11399;DHT22;5755;48.116;11.608;2023-07-02T02:42:20;16.70;99.90
11399;DHT22;5755;48.116;11.608;2023-07-02T02:48:28;16.80;99.90
11399;DHT22;5755;48.116;11.608;2023-07-02T02:54:30;16.90;99.90
11399;DHT22;5755;48.116;11.608;2023-07-02T03:00:24;17.00;99.90
11399;DHT22;5755;48.116;11.608;2023-07-02T03:02:51;17.00;99.90
11399;DHT22;5755;48.116;11.608;2023-07-02T03:05:18;17.00;99.90
11399;DHT22;5755;48.116;11.608;2023-07-02T03:14:47;17.00;99.90
11399;DHT22;5755;48.116;11.608;2023-07-02T03:22:28;17.00;99.90
11399;DHT22;5755;48.116;11.608;2023-07-02T03:24:55;17.00;99.90
11399;DHT22;5755;48.116;11.608;2023-07-02T03:27:22;17.10;99.90
11399;DHT22;5755;48.116;11.608;2023-07-02T03:29:51;17.00;99.90
11399;DHT22;5755;48.116;11.608;2023-07-02T03:32:41;17.00;99.90
11399;DHT22;5755;48.116;11.608;2023-07-02T03:35:14;16.60;99.00
11399;DHT22;5755;48.116;11.608;2023-07-02T03:37:56;16.30;97.90
11399;DHT22;5755;48.116;11.608;2023-07-02T03:40:23;16.00;98.30
11399;DHT22;5755;48.116;11.608;2023-07-02T03:42:50;15.80;98.20
11399;DHT22;5755;48.116;11.608;2023-07-02T03:45:19;15.60;98.70
11399;DHT22;5755;48.116;11.608;2023-07-02T04:01:44;15.10;99.90
11399;DHT22;5755;48.116;11.608;2023-07-02T04:04:24;15.10;99.90
11399;DHT22;5755;48.116;11.608;2023-07-02T04:33:41;15.00;99.90
11399;DHT22;5755;48.116;11.608;2023-07-02T04:36:08;14.90;99.90
11399;DHT22;5755;48.116;11.608;2023-07-02T04:38:37;15.00;99.90
11399;DHT22;5755;48.116;11.608;2023-07-02T04:41:19;15.00;99.90
11399;DHT22;5755;48.116;11.608;2023-07-02T04:43:46;15.00;99.90
11399;DHT22;5755;48.116;11.608;2023-07-02T04:46:14;15.00;99.90
11399;DHT22;5755;48.116;11.608;2023-07-02T04:49:02;15.00;99.90
11399;DHT22;5755;48.116;11.608;2023-07-02T04:51:33;15.10;99.90
11399;DHT22;5755;48.116;11.608;2023-07-02T04:54:01;15.10;99.90
11399;DHT22;5755;48.116;11.608;2023-07-02T04:56:28;15.20;99.90
11399;DHT22;5755;48.116;11.608;2023-07-02T04:58:55;15.20;99.90
11399;DHT22;5755;48.116;11.608;2023-07-02T05:01:22;15.20;99.90
11399;DHT22;5755;48.116;11.608;2023-07-02T05:03:49;15.20;99.90
11399;DHT22;5755;48.116;11.608;2023-07-02T05:06:40;15.20;99.90
11399;DHT22;5755;48.116;11.608;2023-07-02T05:12:34;15.20;99.90
11399;DHT22;5755;48.116;11.608;2023-07-02T05:15:01;15.20;99.90
11399;DHT22;5755;48.116;11.608;2023-07-02T05:20:05;15.20;99.90
11399;DHT22;5755;48.116;11.608;2023-07-02T05:22:34;15.20;99.90
11399;DHT22;5755;48.116;11.608;2023-07-02T05:25:23;15.20;99.90
11399;DHT22;5755;48.116;11.608;2023-07-02T05:27:58;15.40;99.90
11399;DHT22;5755;48.116;11.608;2023-07-02T05:33:38;15.30;99.90
11399;DHT22;5755;48.116;11.608;2023-07-02T05:36:07;15.30;99.90
11399;DHT22;5755;48.116;11.608;2023-07-02T05:38:41;15.30;99.90
11399;DHT22;5755;48.116;11.608;2023-07-02T05:45:07;15.50;99.90
11399;DHT22;5755;48.116;11.608;2023-07-02T06:04:33;16.20;99.90
11399;DHT22;5755;48.116;11.608;2023-07-02T06:07:00;16.20;99.90
11399;DHT22;5755;48.116;11.608;2023-07-02T06:09:27;16.20;99.90
11399;DHT22;5755;48.116;11.608;2023-07-02T06:11:54;16.20;99.90
11399;DHT22;5755;48.116;11.608;2023-07-02T06:14:21;16.20;99.90
11399;DHT22;5755;48.116;11.608;2023-07-02T06:48:11;15.60;99.90
11399;DHT22;5755;48.116;11.608;2023-07-02T06:54:14;15.70;99.90
11399;DHT22;5755;48.116;11.608;2023-07-02T06:57:17;15.80;99.90
11399;DHT22;5755;48.116;11.608;2023-07-02T07:03:17;15.80;99.90
11399;DHT22;5755;48.116;11.608;2023-07-02T07:13:01;15.90;99.90
11399;DHT22;5755;48.116;11.608;2023-07-02T07:15:32;15.80;99.90
11399;DHT22;5755;48.116;11.608;2023-07-02T07:38:44;15.40;99.90
11399;DHT22;5755;48.116;11.608;2023-07-02T07:44:19;15.40;99.90
11399;DHT22;5755;48.116;11.608;2023-07-02T07:46:46;15.30;99.90
11399;DHT22;5755;48.116;11.608;2023-07-02T07:49:13;15.40;99.90
11399;DHT22;5755;48.116;11.608;2023-07-02T07:51:40;15.40;99.90
11399;DHT22;5755;48.116;11.608;2023-07-02T07:54:09;15.40;99.90
11399;DHT22;5755;48.116;11.608;2023-07-02T07:56:50;15.40;99.90
11399;DHT22;5755;48.116;11.608;2023-07-02T07:59:45;15.50;99.90
11399;DHT22;5755;48.116;11.608;2023-07-02T08:02:24;15.50;99.90
11399;DHT22;5755;48.116;11.608;2023-07-02T08:05:03;15.50;99.90
11399;DHT22;5755;48.116;11.608;2023-07-02T08:34:52;17.10;99.90
11399;DHT22;5755;48.116;11.608;2023-07-02T08:37:20;16.90;99.90
11399;DHT22;5755;48.116;11.608;2023-07-02T08:40:01;16.90;99.90
11399;DHT22;5755;48.116;11.608;2023-07-02T08:42:30;16.70;99.90
11399;DHT22;5755;48.116;11.608;2023-07-02T08:44:59;16.70;99.90
11399;DHT22;5755;48.116;11.608;2023-07-02T08:47:30;16.70;99.90
11399;DHT22;5755;48.116;11.608;2023-07-02T08:50:12;16.80;99.90
11399;DHT22;5755;48.116;11.608;2023-07-02T08:52:41;16.70;99.90
11399;DHT22;5755;48.116;11.608;2023-07-02T08:58:44;16.50;99.90
11399;DHT22;5755;48.116;11.608;2023-07-02T09:04:45;16.50;99.90
11399;DHT22;5755;48.116;11.608;2023-07-02T09:17:21;16.70;99.90
11399;DHT22;5755;48.116;11.608;2023-07-02T09:20:06;16.70;99.90
11399;DHT22;5755;48.116;11.608;2023-07-02T09:22:59;16.70;99.90
11399;DHT22;5755;48.116;11.608;2023-07-02T09:25:41;16.80;99.90
11399;DHT22;5755;48.116;11.608;2023-07-02T09:28:25;16.70;99.90
11399;DHT22;5755;48.116;11.608;2023-07-02T09:30:55;16.70;99.90
11399;DHT22;5755;48.116;11.608;2023-07-02T09:33:36;16.80;99.90
11399;DHT22;5755;48.116;11.608;2023-07-02T09:36:04;16.80;99.90
11399;DHT22;5755;48.116;11.608;2023-07-02T09:38:45;16.90;99.90
11399;DHT22;5755;48.116;11.608;2023-07-02T09:41:26;17.00;99.90
11399;DHT22;5755;48.116;11.608;2023-07-02T09:43:53;17.10;99.90
11399;DHT22;5755;48.116;11.608;2023-07-02T09:46:25;17.10;99.90
11399;DHT22;5755;48.116;11.608;2023-07-02T09:49:49;17.10;99.90
11399;DHT22;5755;48.116;11.608;2023-07-02T09:52:18;17.30;99.90
11399;DHT22;5755;48.116;11.608;2023-07-02T09:54:45;17.50;99.90
11399;DHT22;5755;48.116;11.608;2023-07-02T09:57:12;17.40;99.90
11399;DHT22;5755;48.116;11.608;2023-07-02T09:59:42;17.30;99.90
11399;DHT22;5755;48.116;11.608;2023-07-02T10:02:24;17.20;99.90
11399;DHT22;5755;48.116;11.608;2023-07-02T10:05:05;17.20;99.90
11399;DHT22;5755;48.116;11.608;2023-07-02T10:07:33;17.10;99.90
11399;DHT22;5755;48.116;11.608;2023-07-02T10:10:26;17.10;99.90
11399;DHT22;5755;48.116;11.608;2023-07-02T10:13:06;17.20;99.90
11399;DHT22;5755;48.116;11.608;2023-07-02T10:15:33;17.40;99.90
11399;DHT22;5755;48.116;11.608;2023-07-02T10:18:04;17.60;99.90
11399;DHT22;5755;48.116;11.608;2023-07-02T10:20:45;17.80;99.50
11399;DHT22;5755;48.116;11.608;2023-07-02T10:23:12;18.60;99.90
11399;DHT22;5755;48.116;11.608;2023-07-02T10:25:39;19.50;99.40
11399;DHT22;5755;48.116;11.608;2023-07-02T10:28:17;20.20;96.10
11399;DHT22;5755;48.116;11.608;2023-07-02T10:30:44;20.30;95.00
11399;DHT22;5755;48.116;11.608;2023-07-02T10:33:14;20.10;93.60
11399;DHT22;5755;48.116;11.608;2023-07-02T10:36:05;20.10;93.10
11399;DHT22;5755;48.116;11.608;2023-07-02T10:38:32;20.30;93.40
11399;DHT22;5755;48.116;11.608;2023-07-02T10:40:59;20.60;92.80
11399;DHT22;5755;48.116;11.608;2023-07-02T10:43:27;20.60;92.20
11399;DHT22;5755;48.116;11.608;2023-07-02T10:45:54;20.80;90.20
11399;DHT22;5755;48.116;11.608;2023-07-02T10:48:23;20.80;92.10
11399;DHT22;5755;48.116;11.608;2023-07-02T10:51:11;21.10;90.90
11399;DHT22;5755;48.116;11.608;2023-07-02T10:53:38;21.10;88.50
11399;DHT22;5755;48.116;11.608;2023-07-02T10:56:05;21.00;85.50
11399;DHT22;5755;48.116;11.608;2023-07-02T10:58:41;21.10;89.10
11399;DHT22;5755;48.116;11.608;2023-07-02T11:01:08;21.10;84.90
11399;DHT22;5755;48.116;11.608;2023-07-02T11:03:37;21.20;87.00
11399;DHT22;5755;48.116;11.608;2023-07-02T11:06:04;21.50;86.20
11399;DHT22;5755;48.116;11.608;2023-07-02T11:08:35;21.80;86.70
11399;DHT22;5755;48.116;11.608;2023-07-02T11:11:24;21.70;85.70
11399;DHT22;5755;48.116;11.608;2023-07-02T11:13:52;21.80;89.00
11399;DHT22;5755;48.116;11.608;2023-07-02T11:16:21;21.90;82.20
11399;DHT22;5755;48.116;11.608;2023-07-02T11:18:52;21.90;87.70
11399;DHT22;5755;48.116;11.608;2023-07-02T11:21:20;22.00;79.80
11399;DHT22;5755;48.116;11.608;2023-07-02T11:23:47;21.80;76.80
11399;DHT22;5755;48.116;11.608;2023-07-02T11:26:14;21.80;88.30
11399;DHT22;5755;48.116;11.608;2023-07-02T11:28:51;22.00;73.40
11399;DHT22;5755;48.116;11.608;2023-07-02T11:31:31;22.00;80.90
11399;DHT22;5755;48.116;11.608;2023-07-02T11:34:00;22.10;84.00
11399;DHT22;5755;48.116;11.608;2023-07-02T11:36:41;22.30;76.10
11399;DHT22;5755;48.116;11.608;2023-07-02T11:39:08;22.50;67.50
11399;DHT22;5755;48.116;11.608;2023-07-02T11:41:49;22.50;71.20
11399;DHT22;5755;48.116;11.608;2023-07-02T11:44:16;22.70;75.20
11399;DHT22;5755;48.116;11.608;2023-07-02T11:46:44;22.90;58.50
11399;DHT22;5755;48.116;11.608;2023-07-02T11:49:14;22.80;77.20
11399;DHT22;5755;48.116;11.608;2023-07-02T11:51:55;22.60;65.40
11399;DHT22;5755;48.116;11.608;2023-07-02T11:54:22;22.50;64.40
11399;DHT22;5755;48.116;11.608;2023-07-02T11:56:49;22.50;67.40
11399;DHT22;5755;48.116;11.608;2023-07-02T11:59:15;22.60;64.50
11399;DHT22;5755;48.116;11.608;2023-07-02T12:01:43;22.70;58.40
11399;DHT22;5755;48.116;11.608;2023-07-02T12:04:10;22.60;59.80
11399;DHT22;5755;48.116;11.608;2023-07-02T12:06:40;22.80;53.40
11399;DHT22;5755;48.116;11.608;2023-07-02T12:09:07;22.60;58.40
11399;DHT22;5755;48.116;11.608;2023-07-02T12:11:34;22.50;60.20
11399;DHT22;5755;48.116;11.608;2023-07-02T12:14:01;22.60;67.00
11399;DHT22;5755;48.116;11.608;2023-07-02T12:16:28;22.90;54.00
11399;DHT22;5755;48.116;11.608;2023-07-02T12:18:55;22.90;47.90
11399;DHT22;5755;48.116;11.608;2023-07-02T12:21:22;23.00;50.60
11399;DHT22;5755;48.116;11.608;2023-07-02T12:23:50;23.10;51.50
11399;DHT22;5755;48.116;11.608;2023-07-02T12:26:17;23.20;50.90
11399;DHT22;5755;48.116;11.608;2023-07-02T12:28:44;23.30;48.70
11399;DHT22;5755;48.116;11.608;2023-07-02T12:31:11;23.30;51.30
11399;DHT22;5755;48.116;11.608;2023-07-02T12:33:48;23.00;51.40
11399;DHT22;5755;48.116;11.608;2023-07-02T12:36:16;23.10;58.70
11399;DHT22;5755;48.116;11.608;2023-07-02T12:38:43;23.10;47.50
11399;DHT22;5755;48.116;11.608;2023-07-02T12:41:11;23.60;39.80
11399;DHT22;5755;48.116;11.608;2023-07-02T12:43:38;23.80;37.90
11399;DHT22;5755;48.116;11.608;2023-07-02T12:46:06;23.90;38.50
11399;DHT22;5755;48.116;11.608;2023-07-02T12:48:33;24.00;35.40
11399;DHT22;5755;48.116;11.608;2023-07-02T12:51:00;24.10;35.10
11399;DHT22;5755;48.116;11.608;2023-07-02T12:53:28;24.10;31.90
11399;DHT22;5755;48.116;11.608;2023-07-02T12:55:55;24.30;31.90
11399;DHT22;5755;48.116;11.608;2023-07-02T13:13:57;24.10;30.30
11399;DHT22;5755;48.116;11.608;2023-07-02T13:19:00;24.20;26.50
11399;DHT22;5755;48.116;11.608;2023-07-02T13:56:02;23.40;26.80
11399;DHT22;5755;48.116;11.608;2023-07-02T14:05:47;23.90;24.90
11399;DHT22;5755;48.116;11.608;2023-07-02T14:24:51;23.80;23.80
11399;DHT22;5755;48.116;11.608;2023-07-02T14:52:29;23.80;22.20
11399;DHT22;5755;48.116;11.608;2023-07-02T15:01:53;23.60;22.00
11399;DHT22;5755;48.116;11.608;2023-07-02T15:04:24;23.70;23.50
11399;DHT22;5755;48.116;11.608;2023-07-02T15:06:51;23.70;23.40
11399;DHT22;5755;48.116;11.608;2023-07-02T15:09:18;23.70;23.40
11399;DHT22;5755;48.116;11.608;2023-07-02T15:11:45;23.60;24.10
11399;DHT22;5755;48.116;11.608;2023-07-02T15:14:12;23.80;22.20
11399;DHT22;5755;48.116;11.608;2023-07-02T15:16:39;23.80;23.50
11399;DHT22;5755;48.116;11.608;2023-07-02T15:19:08;23.60;24.10
11399;DHT22;5755;48.116;11.608;2023-07-02T15:21:35;23.60;25.40
11399;DHT22;5755;48.116;11.608;2023-07-02T15:24:02;23.50;24.60
11399;DHT22;5755;48.116;11.608;2023-07-02T15:26:29;23.60;23.90
11399;DHT22;5755;48.116;11.608;2023-07-02T15:28:56;23.60;25.20
11399;DHT22;5755;48.116;11.608;2023-07-02T15:31:23;23.80;23.50
11399;DHT22;5755;48.116;11.608;2023-07-02T15:33:50;24.00;23.70
11399;DHT22;5755;48.116;11.608;2023-07-02T15:36:19;24.20;22.60
11399;DHT22;5755;48.116;11.608;2023-07-02T15:38:47;24.00;22.30
11399;DHT22;5755;48.116;11.608;2023-07-02T15:41:16;23.70;23.30
11399;DHT22;5755;48.116;11.608;2023-07-02T15:43:45;23.70;23.40
11399;DHT22;5755;48.116;11.608;2023-07-02T15:46:14;23.80;24.70
11399;DHT22;5755;48.116;11.608;2023-07-02T15:48:41;23.70;23.40
11399;DHT22;5755;48.116;11.608;2023-07-02T15:51:09;23.60;23.20
11399;DHT22;5755;48.116;11.608;2023-07-02T15:53:40;23.60;22.80
11399;DHT22;5755;48.116;11.608;2023-07-02T15:56:08;23.70;23.30
11399;DHT22;5755;48.116;11.608;2023-07-02T15:58:34;23.80;23.00
11399;DHT22;5755;48.116;11.608;2023-07-02T16:01:09;23.60;23.30
11399;DHT22;5755;48.116;11.608;2023-07-02T16:03:36;23.60;23.20
11399;DHT22;5755;48.116;11.608;2023-07-02T16:06:04;23.60;22.50
11399;DHT22;5755;48.116;11.608;2023-07-02T16:08:31;23.50;23.20
11399;DHT22;5755;48.116;11.608;2023-07-02T16:10:59;23.30;22.50
11399;DHT22;5755;48.116;11.608;2023-07-02T16:13:27;23.10;22.90
11399;DHT22;5755;48.116;11.608;2023-07-02T16:15:54;22.90;22.70
11399;DHT22;5755;48.116;11.608;2023-07-02T16:18:20;22.80;23.80
11399;DHT22;5755;48.116;11.608;2023-07-02T16:20:54;23.00;24.90
11399;DHT22;5755;48.116;11.608;2023-07-02T16:23:21;23.20;23.60
11399;DHT22;5755;48.116;11.608;2023-07-02T16:25:52;23.30;24.10
11399;DHT22;5755;48.116;11.608;2023-07-02T16:28:21;23.30;24.80
11399;DHT22;5755;48.116;11.608;2023-07-02T16:30:48;23.30;25.40
11399;DHT22;5755;48.116;11.608;2023-07-02T16:33:16;23.30;24.60
11399;DHT22;5755;48.116;11.608;2023-07-02T16:35:43;23.50;23.50
11399;DHT22;5755;48.116;11.608;2023-07-02T16:38:10;23.60;22.00
11399;DHT22;5755;48.116;11.608;2023-07-02T16:40:37;23.60;22.00
11399;DHT22;5755;48.116;11.608;2023-07-02T16:43:05;23.60;21.90
11399;DHT22;5755;48.116;11.608;2023-07-02T16:45:34;23.40;22.20
11399;DHT22;5755;48.116;11.608;2023-07-02T16:48:01;23.30;24.40
11399;DHT22;5755;48.116;11.608;2023-07-02T16:50:28;23.10;25.10
11399;DHT22;5755;48.116;11.608;2023-07-02T16:52:54;22.90;25.10
11399;DHT22;5755;48.116;11.608;2023-07-02T16:55:21;22.80;24.80
11399;DHT22;5755;48.116;11.608;2023-07-02T16:57:48;22.80;24.20
11399;DHT22;5755;48.116;11.608;2023-07-02T17:00:16;22.70;24.70
11399;DHT22;5755;48.116;11.608;2023-07-02T17:02:45;22.70;24.80
11399;DHT22;5755;48.116;11.608;2023-07-02T17:05:27;22.50;24.80
11399;DHT22;5755;48.116;11.608;2023-07-02T17:08:14;22.30;25.40
11399;DHT22;5755;48.116;11.608;2023-07-02T17:10:41;22.20;26.00
11399;DHT22;5755;48.116;11.608;2023-07-02T17:13:09;22.30;24.80
11399;DHT22;5755;48.116;11.608;2023-07-02T17:19:35;22.50;24.70
11399;DHT22;5755;48.116;11.608;2023-07-02T17:22:38;22.50;25.60
11399;DHT22;5755;48.116;11.608;2023-07-02T17:25:05;22.60;24.90
11399;DHT22;5755;48.116;11.608;2023-07-02T18:21:53;21.40;33.20
11399;DHT22;5755;48.116;11.608;2023-07-02T18:24:37;21.40;33.20
11399;DHT22;5755;48.116;11.608;2023-07-02T18:27:24;21.40;34.30
11399;DHT22;5755;48.116;11.608;2023-07-02T19:28:22;20.10;56.00
11399;DHT22;5755;48.116;11.608;2023-07-02T19:30:49;20.00;55.90
